Terminal Aerodrome Forecast
Issued by NWS

Home | Current Version | Previous Version | Graphics & Text | Print | Product List | Glossary On
Versions: 1 2 3 4 5 6 7 8 9 10 11 12 13 14
934
FTUS43 KIWX 231126
TAFSBN
TAF
KSBN 231126Z 2312/2412 22012KT P6SM -SHRA VCTS OVC006CB
      TEMPO 2312/2314 2SM -TSRA BKN005CB
     FM231400 25008KT P6SM -SHRA OVC015
     FM231700 30010KT P6SM BKN025
     FM232000 32012KT P6SM BKN050=

USA.gov is the U.S. government's official web portal to all federal, state and local government web resources and services.